Massena, NY

12:51 PM EDT on August 27, 2014 (GMT -0400)
Massena International-Richards | Change Station
CLOSE
Current Station
Airport
Location: Massena,
Elevation: 213 ft
Nearby Weather Stations

Elev 213 ft 44.94 °N, 74.85 °W | Updated 58 minutes ago

Partly Cloudy
Partly Cloudy
75 °F
Feels Like 75 °F
N
9
Wind Variable Wind from WNW

Today
High -- | Low -- °F
--% Chance of Precip.
Yesterday
High -- | Low -- °F
Precip. -- in
6:15 AM 7:45 PM
Waxing Crescent, 4% visible
Pressure 29.97 in
Visibility 10.0 miles
Clouds Few 3700 ft
Dew Point 60 °F
Humidity 60%
Rainfall 0.00 in
Snow Depth Not available.
UV 8 out of 12
Pollen 8.50 out of 12
Air Quality Not available.
Flu Activity Not available.
METAR KMSS 271553Z AUTO 29008KT 10SM FEW037 24/16 A2997 RMK AO2 SLP147 T02390156

More Conditions Fewer Conditions

Pressure 29.97 in
Visibility 10.0 miles
Clouds Few 3700 ft
Dew Point 60 °F
Humidity 60%
Rainfall 0.00 in
Snow Depth Not available.
UV 8 out of 12
Pollen 8.50 out of 12
Air Quality Not available.
Flu Activity Not available.
METAR KMSS 271553Z AUTO 29008KT 10SM FEW037 24/16 A2997 RMK AO2 SLP147 T02390156

More Conditions Fewer Conditions

10-Day Weather Forecast

Almanac

Astronomy

Aug. 27, 2014 Rise Set
Actual Time 6:15 AM EDT 7:45 PM EDT
Civil Twilight 5:45 AM EDT 8:16 PM EDT
Nautical Twilight 5:08 AM EDT 8:53 PM EDT
Astronomical Twilight 4:28 AM EDT 9:32 PM EDT
Moon 8:16 AM EDT 8:28 PM EDT
Length of Visible Light 14h 31m
Length of Day
13h 29m
Tomorrow will be 2m 58s shorter.
Waxing Crescent, 4% of the Moon is Illuminated
Today
Waxing Crescent
Sep 2
First Quarter
Sep 8
Full
Sep 15
Last Quarter
Sep 24
New

Today's Extremes

State Highs State Lows

Community

WunderPhotos

Upload Photos

1,747,727 photos uploaded!

Nearby

Air Quality

  Air Quality AQ Index Pollutant
Wednesday Good
OZONE
Wednesday Good
PM2.5

Snow Depth

Station Depth Elevation
No new snow has been reported.

Earthquake Activity

City Distance Mag. Time & Date
No recent earthquake activity has been reported nearby.
Minimum magnitude displayed is 2.5.

Coastal Water Temperatures

Place Temperature
Ogdensburg, NY 64.9 °F
Alexandria Bay, NY 70.0 °F

Nearby Weather Stations